createdAt,value
2023-06-07T00:00:42.573Z,100171.55
2023-06-07T00:03:10.852Z,100171.08
2023-06-07T00:05:40.273Z,100170.11
2023-06-07T00:08:08.507Z,100167.34
2023-06-07T00:10:35.866Z,100164.94
2023-06-07T00:13:03.088Z,100166.72
2023-06-07T00:15:30.844Z,100165.52
2023-06-07T00:18:01.415Z,100163.57
2023-06-07T00:20:28.971Z,100164.31
2023-06-07T00:22:59.493Z,100164.48
2023-06-07T00:25:26.980Z,100164.48
2023-06-07T00:27:54.407Z,100165.81
2023-06-07T00:30:22.158Z,100169.27
2023-06-07T00:32:49.502Z,100166.66
2023-06-07T00:35:16.937Z,100165.54
2023-06-07T00:37:44.709Z,100168.27
2023-06-07T00:40:12.627Z,100169.80
2023-06-07T00:42:39.926Z,100173.69
2023-06-07T00:45:07.950Z,100171.65
2023-06-07T00:47:38.013Z,100169.34
2023-06-07T00:50:06.439Z,100167.48
2023-06-07T00:52:35.343Z,100170.56
2023-06-07T00:55:03.560Z,100169.82
2023-06-07T00:57:30.916Z,100170.11
2023-06-07T00:59:58.110Z,100169.27
2023-06-07T01:02:27.525Z,100169.15
2023-06-07T01:04:56.252Z,100169.28
2023-06-07T01:07:26.029Z,100173.84
2023-06-07T01:09:54.140Z,100175.70
2023-06-07T01:12:21.773Z,100175.48
2023-06-07T01:14:49.392Z,100176.98
2023-06-07T01:17:18.208Z,100179.09
2023-06-07T01:19:46.721Z,100179.84
2023-06-07T01:22:15.270Z,100176.60
2023-06-07T01:24:43.627Z,100177.60
2023-06-07T01:27:11.283Z,100179.45
2023-06-07T01:29:38.513Z,100181.04
2023-06-07T01:32:09.324Z,100180.59
2023-06-07T01:34:36.627Z,100180.33
2023-06-07T01:37:03.984Z,100183.20
2023-06-07T01:39:31.325Z,100184.50
2023-06-07T01:41:58.936Z,100179.93
2023-06-07T01:44:26.666Z,100181.80
2023-06-07T01:46:53.929Z,100178.83
2023-06-07T01:49:22.565Z,100179.79
2023-06-07T01:51:49.813Z,100180.38
2023-06-07T01:54:17.197Z,100179.48
2023-06-07T01:56:47.037Z,100182.62
2023-06-07T01:59:24.920Z,100183.90
2023-06-07T02:02:17.441Z,100185.56
2023-06-07T02:04:46.417Z,100182.15
2023-06-07T02:07:17.964Z,100184.63
2023-06-07T02:09:45.239Z,100183.43
2023-06-07T02:12:12.490Z,100186.02
2023-06-07T02:14:39.801Z,100189.89
2023-06-07T02:17:08.783Z,100188.58
2023-06-07T02:19:38.221Z,100188.96
2023-06-07T02:22:06.908Z,100188.79
2023-06-07T02:24:35.220Z,100190.70
2023-06-07T02:27:03.765Z,100192.92
2023-06-07T02:29:30.988Z,100195.52
2023-06-07T02:31:59.124Z,100194.62
2023-06-07T02:34:27.838Z,100196.57
2023-06-07T02:36:55.102Z,100193.61
2023-06-07T02:39:23.668Z,100193.79
2023-06-07T02:41:50.887Z,100196.42
2023-06-07T02:44:18.159Z,100194.79
2023-06-07T02:46:45.761Z,100195.29
2023-06-07T02:49:13.219Z,100193.99
2023-06-07T02:51:40.918Z,100196.27
2023-06-07T02:54:10.324Z,100197.90
2023-06-07T02:56:37.804Z,100194.22
2023-06-07T02:59:05.297Z,100196.91
2023-06-07T03:01:35.481Z,100194.27
2023-06-07T03:04:02.982Z,100194.52
2023-06-07T03:06:31.198Z,100198.36
2023-06-07T03:09:02.176Z,100199.99
2023-06-07T03:11:30.735Z,100215.33
2023-06-07T03:13:58.291Z,100211.27
2023-06-07T03:16:29.408Z,100214.00
2023-06-07T03:19:00.440Z,100209.44
2023-06-07T03:21:27.854Z,100209.21
2023-06-07T03:23:57.718Z,100214.00
2023-06-07T03:26:25.068Z,100215.62
2023-06-07T03:28:53.632Z,100218.48
2023-06-07T03:31:21.422Z,100220.98
2023-06-07T03:33:55.402Z,100222.34
2023-06-07T03:36:25.725Z,100223.90
2023-06-07T03:38:54.524Z,100222.42
2023-06-07T03:41:22.712Z,100223.20
2023-06-07T03:43:53.864Z,100221.92
2023-06-07T03:46:21.555Z,100220.02
2023-06-07T03:48:52.659Z,100221.80
2023-06-07T03:51:20.466Z,100217.77
2023-06-07T03:53:48.383Z,100222.90
2023-06-07T03:56:15.978Z,100219.91
2023-06-07T03:58:46.374Z,100222.80
2023-06-07T04:01:17.714Z,100224.48
2023-06-07T04:03:45.420Z,100225.39
2023-06-07T04:06:13.323Z,100226.42
2023-06-07T04:08:41.069Z,100227.48
2023-06-07T04:11:09.100Z,100228.51
2023-06-07T04:13:36.412Z,100233.00
2023-06-07T04:16:04.010Z,100235.32
2023-06-07T04:18:31.318Z,100235.25
2023-06-07T04:20:58.549Z,100233.59
2023-06-07T04:23:26.353Z,100235.80
2023-06-07T04:25:57.294Z,100240.58
2023-06-07T04:28:24.971Z,100244.53
2023-06-07T04:30:54.977Z,100246.63
2023-06-07T04:33:23.713Z,100247.13
2023-06-07T04:35:51.754Z,100247.23
2023-06-07T04:38:23.280Z,100244.61
2023-06-07T04:40:53.096Z,100243.86
2023-06-07T04:43:43.400Z,100241.21
2023-06-07T04:46:12.081Z,100244.67
2023-06-07T04:48:42.297Z,100247.39
2023-06-07T04:51:11.492Z,100249.19
2023-06-07T04:53:44.212Z,100250.31
2023-06-07T04:56:14.149Z,100248.68
2023-06-07T04:58:41.750Z,100251.60
2023-06-07T05:01:11.936Z,100254.18
2023-06-07T05:03:43.325Z,100254.95
2023-06-07T05:06:12.355Z,100254.45
2023-06-07T05:08:40.788Z,100259.89
2023-06-07T05:11:08.120Z,100263.66
2023-06-07T05:13:35.441Z,100265.32
2023-06-07T05:16:04.223Z,100265.42
2023-06-07T05:18:31.933Z,100265.33
2023-06-07T05:20:59.562Z,100270.80
2023-06-07T05:23:28.092Z,100274.30
2023-06-07T05:25:56.335Z,100281.44
2023-06-07T05:28:23.790Z,100281.48
2023-06-07T05:30:54.489Z,100283.17
2023-06-07T05:33:22.391Z,100281.94
2023-06-07T05:35:49.779Z,100282.98
2023-06-07T05:38:18.616Z,100283.44
2023-06-07T05:40:45.956Z,100284.88
2023-06-07T05:43:13.336Z,100283.39
2023-06-07T05:45:41.905Z,100283.55
2023-06-07T05:48:09.389Z,100282.52
2023-06-07T05:50:36.856Z,100286.61
2023-06-07T05:53:04.109Z,100288.54
2023-06-07T05:55:31.587Z,100289.71
2023-06-07T05:57:59.293Z,100291.40
2023-06-07T06:00:26.563Z,100290.37
2023-06-07T06:02:54.602Z,100295.45
2023-06-07T06:05:22.446Z,100297.48
2023-06-07T06:07:50.213Z,100297.31
2023-06-07T06:10:17.952Z,100300.79
2023-06-07T06:12:45.152Z,100304.63
2023-06-07T06:15:12.430Z,100308.11
2023-06-07T06:17:39.692Z,100305.41
2023-06-07T06:20:09.229Z,100304.48
2023-06-07T06:22:36.501Z,100305.60
2023-06-07T06:25:04.656Z,100308.36
2023-06-07T06:27:32.042Z,100309.88
2023-06-07T06:29:59.414Z,100310.96
2023-06-07T06:32:26.803Z,100310.58
2023-06-07T06:34:54.069Z,100313.87
2023-06-07T06:37:21.993Z,100312.86
2023-06-07T06:39:49.554Z,100316.29
2023-06-07T06:42:16.872Z,100316.20
2023-06-07T06:47:29.498Z,100315.06
2023-06-07T06:49:57.134Z,100320.10
2023-06-07T06:52:25.490Z,100319.85
2023-06-07T06:54:52.674Z,100321.00
2023-06-07T06:57:19.958Z,100320.52
2023-06-07T06:59:50.284Z,100320.34
2023-06-07T07:02:17.997Z,100324.21
2023-06-07T07:04:45.359Z,100325.30
2023-06-07T07:07:12.642Z,100325.50
2023-06-07T07:09:39.889Z,100324.93
2023-06-07T07:12:08.344Z,100324.29
2023-06-07T07:14:35.827Z,100326.09
2023-06-07T07:17:03.231Z,100330.58
2023-06-07T07:19:30.581Z,100330.38
2023-06-07T07:21:57.835Z,100328.95
2023-06-07T07:24:25.231Z,100334.04
2023-06-07T07:26:52.514Z,100333.29
2023-06-07T07:29:20.537Z,100336.89
2023-06-07T07:31:47.743Z,100336.27
2023-06-07T07:34:15.205Z,100337.98
2023-06-07T07:36:45.437Z,100337.91
2023-06-07T07:39:12.923Z,100336.71
2023-06-07T07:41:43.099Z,100338.81
2023-06-07T07:44:10.600Z,100343.74
2023-06-07T07:48:48.596Z,100339.48
2023-06-07T07:51:16.735Z,100348.77
2023-06-07T07:53:44.005Z,100349.40
2023-06-07T07:56:11.327Z,100347.91
2023-06-07T07:58:38.785Z,100354.29
2023-06-07T08:01:09.775Z,100347.33
2023-06-07T08:03:37.190Z,100350.59
2023-06-07T08:06:04.959Z,100352.03
2023-06-07T08:08:32.944Z,100349.54
2023-06-07T08:11:01.462Z,100349.98
2023-06-07T08:13:29.780Z,100350.46
2023-06-07T08:15:57.138Z,100355.64
2023-06-07T08:18:24.612Z,100353.86
2023-06-07T08:20:52.265Z,100352.69
2023-06-07T08:23:19.508Z,100352.02
2023-06-07T08:25:46.922Z,100355.33
2023-06-07T08:28:14.162Z,100354.11
2023-06-07T08:30:42.080Z,100352.21
2023-06-07T08:33:09.360Z,100351.99
2023-06-07T08:35:36.678Z,100354.27
2023-06-07T08:38:03.916Z,100358.79
2023-06-07T08:40:31.222Z,100361.83
2023-06-07T08:42:58.579Z,100361.23
2023-06-07T08:45:26.159Z,100357.58
2023-06-07T08:47:53.480Z,100358.63
2023-06-07T08:50:21.027Z,100357.61
2023-06-07T08:52:49.313Z,100359.48
2023-06-07T08:55:16.655Z,100360.10
2023-06-07T08:57:47.052Z,100361.23
2023-06-07T09:00:14.949Z,100361.89
2023-06-07T09:02:42.747Z,100360.48
2023-06-07T09:05:11.779Z,100361.73
2023-06-07T09:07:39.008Z,100359.77
2023-06-07T09:10:07.102Z,100362.09
2023-06-07T09:12:36.590Z,100361.00
2023-06-07T09:15:06.218Z,100360.04
2023-06-07T09:17:56.348Z,100357.83
2023-06-07T09:20:25.429Z,100356.64
2023-06-07T09:23:10.325Z,100354.52
2023-06-07T09:25:39.087Z,100351.31
2023-06-07T09:28:11.094Z,100350.09
2023-06-07T09:30:57.782Z,100352.59
2023-06-07T09:33:35.051Z,100353.61
2023-06-07T09:36:10.370Z,100347.98
2023-06-07T09:38:37.870Z,100346.98
2023-06-07T09:41:06.817Z,100348.98
2023-06-07T09:43:55.785Z,100349.77
2023-06-07T09:46:23.400Z,100349.02
2023-06-07T09:48:54.515Z,100352.44
2023-06-07T09:51:22.225Z,100351.64
2023-06-07T09:53:52.802Z,100356.29
2023-06-07T09:56:21.212Z,100353.73
2023-06-07T09:59:08.384Z,100355.58
2023-06-07T10:01:38.967Z,100355.14
2023-06-07T10:04:07.948Z,100356.09
2023-06-07T10:06:36.568Z,100354.63
2023-06-07T10:09:05.615Z,100354.06
2023-06-07T10:11:37.551Z,100346.20
2023-06-07T10:14:12.069Z,100346.01
2023-06-07T10:16:43.796Z,100340.52
2023-06-07T10:19:28.983Z,100340.56
2023-06-07T10:21:57.060Z,100336.06
2023-06-07T10:24:33.990Z,100340.34
2023-06-07T10:27:09.283Z,100339.07
2023-06-07T10:29:42.925Z,100340.17
2023-06-07T10:32:31.787Z,100336.98
2023-06-07T10:34:59.070Z,100340.91
2023-06-07T10:37:31.911Z,100335.78
2023-06-07T10:39:59.395Z,100330.61
2023-06-07T10:42:26.754Z,100330.52
2023-06-07T10:44:55.024Z,100329.67
2023-06-07T10:47:22.646Z,100324.98
2023-06-07T10:49:50.742Z,100324.28
2023-06-07T10:52:18.293Z,100322.88
2023-06-07T10:54:46.309Z,100323.50
2023-06-07T10:57:13.829Z,100323.66
2023-06-07T10:59:41.279Z,100321.77
2023-06-07T11:02:30.617Z,100321.11
2023-06-07T11:04:58.901Z,100316.65
2023-06-07T11:07:32.078Z,100314.04
2023-06-07T11:10:06.725Z,100312.79
2023-06-07T11:12:41.948Z,100304.73
2023-06-07T11:15:21.762Z,100304.61
2023-06-07T11:17:53.673Z,100308.85
2023-06-07T11:20:36.877Z,100309.19
2023-06-07T11:23:29.952Z,100310.08
2023-06-07T11:26:07.429Z,100310.88
2023-06-07T11:28:38.933Z,100304.53
2023-06-07T11:31:11.607Z,100305.71
2023-06-07T11:33:42.322Z,100302.89
2023-06-07T11:36:10.926Z,100299.32
2023-06-07T11:38:38.633Z,100295.30
2023-06-07T11:41:06.988Z,100301.64
2023-06-07T11:43:34.426Z,100297.73
2023-06-07T11:46:01.846Z,100290.57
2023-06-07T11:48:30.260Z,100290.92
2023-06-07T11:50:58.779Z,100288.86
2023-06-07T11:53:30.670Z,100287.85
2023-06-07T11:56:05.395Z,100288.17
2023-06-07T11:58:33.239Z,100284.91
2023-06-07T12:01:00.558Z,100286.20
2023-06-07T12:03:28.276Z,100280.67
2023-06-07T12:05:56.041Z,100280.46
2023-06-07T12:08:23.967Z,100283.79
2023-06-07T12:10:55.069Z,100278.02
2023-06-07T12:13:23.101Z,100279.65
2023-06-07T12:15:54.812Z,100276.31
2023-06-07T12:18:29.363Z,100277.60
2023-06-07T12:21:10.457Z,100273.71
2023-06-07T12:23:39.176Z,100273.58
2023-06-07T12:26:11.450Z,100271.04
2023-06-07T12:28:40.895Z,100273.94
2023-06-07T12:31:15.905Z,100271.09
2023-06-07T12:33:57.422Z,100270.09
2023-06-07T12:36:27.304Z,100266.91
2023-06-07T12:38:54.789Z,100268.92
2023-06-07T12:41:25.289Z,100265.65
2023-06-07T12:43:52.796Z,100259.08
2023-06-07T12:46:20.133Z,100260.76
2023-06-07T12:48:47.591Z,100256.09
2023-06-07T12:51:14.931Z,100248.27
2023-06-07T12:53:42.727Z,100245.55
2023-06-07T12:56:10.082Z,100246.54
2023-06-07T12:58:37.681Z,100235.56
2023-06-07T13:01:05.031Z,100238.05
2023-06-07T13:03:32.557Z,100240.80
2023-06-07T13:05:59.904Z,100238.44
2023-06-07T13:08:27.262Z,100234.67
2023-06-07T13:10:54.459Z,100233.05
2023-06-07T13:13:23.256Z,100232.12
2023-06-07T13:15:50.735Z,100230.52
2023-06-07T13:18:18.356Z,100230.91
2023-06-07T13:20:45.777Z,100230.02
2023-06-07T13:23:13.093Z,100232.11
2023-06-07T13:25:40.598Z,100227.39
2023-06-07T13:28:07.887Z,100226.86
2023-06-07T13:30:35.212Z,100227.11
2023-06-07T13:33:04.236Z,100228.23
2023-06-07T13:35:35.919Z,100227.33
2023-06-07T13:38:05.086Z,100227.06
2023-06-07T13:40:32.354Z,100226.88
2023-06-07T13:42:59.547Z,100224.29
2023-06-07T13:45:26.958Z,100226.84
2023-06-07T13:47:54.390Z,100224.39
2023-06-07T13:50:21.656Z,100222.90
2023-06-07T13:52:48.959Z,100221.59
2023-06-07T13:55:16.471Z,100221.21
2023-06-07T13:57:43.844Z,100219.93
2023-06-07T14:00:11.988Z,100225.30
2023-06-07T14:02:39.537Z,100220.52
2023-06-07T14:05:07.798Z,100226.98
2023-06-07T14:07:35.429Z,100222.23
2023-06-07T14:10:02.932Z,100222.06
2023-06-07T14:12:30.566Z,100223.38
2023-06-07T14:14:57.811Z,100221.73
2023-06-07T14:17:25.092Z,100222.88
2023-06-07T14:19:52.910Z,100218.33
2023-06-07T14:22:20.173Z,100223.02
2023-06-07T14:24:47.489Z,100221.48
2023-06-07T14:27:16.121Z,100222.03
2023-06-07T14:29:43.623Z,100223.67
2023-06-07T14:32:11.093Z,100224.01
2023-06-07T14:34:38.310Z,100221.65
2023-06-07T14:37:05.810Z,100216.98
2023-06-07T14:39:33.071Z,100217.13
2023-06-07T14:42:00.580Z,100210.74
2023-06-07T14:44:27.880Z,100206.77
2023-06-07T14:46:55.284Z,100197.95
2023-06-07T14:49:22.498Z,100195.41
2023-06-07T14:51:49.788Z,100198.67
2023-06-07T14:54:17.062Z,100201.98
2023-06-07T14:56:44.708Z,100198.97
2023-06-07T14:59:14.176Z,100200.23
2023-06-07T15:01:42.301Z,100195.75
2023-06-07T15:04:09.966Z,100195.98
2023-06-07T15:06:37.652Z,100194.35
2023-06-07T15:09:05.279Z,100193.34
2023-06-07T15:11:32.469Z,100192.98
2023-06-07T15:13:59.918Z,100192.34
2023-06-07T15:16:27.766Z,100187.81
2023-06-07T15:18:56.281Z,100185.88
2023-06-07T15:21:23.614Z,100185.44
2023-06-07T15:23:51.364Z,100182.16
2023-06-07T15:26:19.096Z,100181.08
2023-06-07T15:28:46.434Z,100179.80
2023-06-07T15:31:13.762Z,100182.69
2023-06-07T15:33:41.215Z,100182.54
2023-06-07T15:36:08.477Z,100182.51
2023-06-07T15:38:38.731Z,100182.02
2023-06-07T15:41:09.375Z,100182.73
2023-06-07T15:43:37.190Z,100184.66
2023-06-07T15:46:04.520Z,100182.38
2023-06-07T15:48:31.787Z,100183.10
2023-06-07T15:50:59.016Z,100183.70
2023-06-07T15:53:26.279Z,100181.57
2023-06-07T15:55:53.490Z,100177.91
2023-06-07T15:58:20.905Z,100178.64
2023-06-07T16:00:49.464Z,100180.48
2023-06-07T16:03:17.445Z,100176.71
2023-06-07T16:05:44.992Z,100174.55
2023-06-07T16:08:14.350Z,100175.45
2023-06-07T16:10:43.430Z,100174.80
2023-06-07T16:13:10.988Z,100174.82
2023-06-07T16:15:38.453Z,100174.50
2023-06-07T16:18:06.315Z,100178.23
2023-06-07T16:20:33.896Z,100174.75
2023-06-07T16:23:01.707Z,100181.05
2023-06-07T16:25:29.203Z,100180.67
2023-06-07T16:27:56.671Z,100180.64
2023-06-07T16:30:23.875Z,100183.70
2023-06-07T16:32:51.182Z,100185.88
2023-06-07T16:35:18.456Z,100187.54
2023-06-07T16:37:46.655Z,100186.35
2023-06-07T16:40:15.085Z,100187.73
2023-06-07T16:42:43.491Z,100184.99
2023-06-07T16:45:11.980Z,100188.65
2023-06-07T16:47:39.298Z,100183.98
2023-06-07T16:50:07.713Z,100188.02
2023-06-07T16:52:35.337Z,100190.81
2023-06-07T16:55:02.550Z,100192.51
2023-06-07T16:57:29.804Z,100198.95
2023-06-07T16:59:59.039Z,100201.93
2023-06-07T17:02:26.383Z,100205.25
2023-06-07T17:04:53.876Z,100206.52
2023-06-07T17:07:21.302Z,100213.41
2023-06-07T17:09:49.174Z,100214.34
2023-06-07T17:12:16.619Z,100217.90
2023-06-07T17:14:49.429Z,100223.51
2023-06-07T17:17:17.329Z,100225.63
2023-06-07T17:19:44.778Z,100226.50
2023-06-07T17:22:12.174Z,100225.70
2023-06-07T17:24:39.445Z,100225.32
2023-06-07T17:27:08.587Z,100221.70
2023-06-07T17:29:36.128Z,100220.46
2023-06-07T17:32:03.723Z,100217.02
2023-06-07T17:34:31.172Z,100214.84
2023-06-07T17:36:58.460Z,100218.64
2023-06-07T17:39:25.914Z,100214.05
2023-06-07T17:41:53.230Z,100215.41
2023-06-07T17:44:22.792Z,100210.99
2023-06-07T17:46:50.059Z,100217.21
2023-06-07T17:49:19.683Z,100215.67
2023-06-07T17:51:48.677Z,100215.82
2023-06-07T17:54:15.969Z,100217.55
2023-06-07T17:56:44.023Z,100222.95
2023-06-07T17:59:11.212Z,100224.74
2023-06-07T18:01:42.939Z,100225.77
2023-06-07T18:04:12.303Z,100231.16
2023-06-07T18:06:40.590Z,100232.62
2023-06-07T18:09:08.063Z,100237.25
2023-06-07T18:11:35.796Z,100240.15
2023-06-07T18:14:03.148Z,100242.40
2023-06-07T18:16:30.886Z,100247.45
2023-06-07T18:18:58.596Z,100254.73
2023-06-07T18:21:26.175Z,100265.77
2023-06-07T18:23:53.539Z,100272.77
2023-06-07T18:26:22.763Z,100278.27
2023-06-07T18:28:50.854Z,100283.46
2023-06-07T18:31:18.616Z,100284.90
2023-06-07T18:33:45.997Z,100291.55
2023-06-07T18:36:13.238Z,100297.70
2023-06-07T18:38:40.884Z,100303.89
2023-06-07T18:41:08.103Z,100310.23
2023-06-07T18:43:35.403Z,100312.89
2023-06-07T18:46:02.893Z,100322.48
2023-06-07T18:48:30.237Z,100324.95
2023-06-07T18:50:57.582Z,100325.35
2023-06-07T18:53:25.021Z,100325.77
2023-06-07T18:55:52.399Z,100327.52
2023-06-07T18:58:20.087Z,100326.95
2023-06-07T19:00:49.596Z,100320.96
2023-06-07T19:03:17.270Z,100322.58
2023-06-07T19:05:44.699Z,100323.34
2023-06-07T19:08:12.406Z,100321.98
2023-06-07T19:10:39.608Z,100325.16
2023-06-07T19:13:06.900Z,100324.00
2023-06-07T19:15:34.280Z,100326.12
2023-06-07T19:18:05.224Z,100325.40
2023-06-07T19:20:35.182Z,100329.34
2023-06-07T19:23:02.466Z,100327.73
2023-06-07T19:25:29.754Z,100326.98
2023-06-07T19:27:57.164Z,100332.60
2023-06-07T19:30:24.396Z,100338.00
2023-06-07T19:32:51.845Z,100345.20
2023-06-07T19:35:19.278Z,100346.14
2023-06-07T19:37:46.738Z,100343.06
2023-06-07T19:40:17.387Z,100339.42
2023-06-07T19:42:44.818Z,100339.17
2023-06-07T19:45:12.568Z,100336.21
2023-06-07T19:47:40.074Z,100334.25
2023-06-07T19:50:08.010Z,100328.80
2023-06-07T19:52:35.970Z,100322.79
2023-06-07T19:55:03.985Z,100315.08
2023-06-07T19:57:31.473Z,100312.33
2023-06-07T19:59:58.713Z,100306.14
2023-06-07T20:02:26.129Z,100312.08
2023-06-07T20:05:32.178Z,100309.75
2023-06-07T20:07:59.457Z,100313.66
2023-06-07T20:10:26.850Z,100317.55
2023-06-07T20:12:54.363Z,100314.20
2023-06-07T20:15:21.569Z,100314.50
2023-06-07T20:17:48.937Z,100315.48
2023-06-07T20:20:16.734Z,100321.65
2023-06-07T20:22:43.974Z,100324.00
2023-06-07T20:25:11.498Z,100336.19
2023-06-07T20:27:38.956Z,100340.00
2023-06-07T20:30:07.322Z,100345.37
2023-06-07T20:32:34.986Z,100347.64
2023-06-07T20:35:02.395Z,100351.99
2023-06-07T20:37:29.711Z,100348.43
2023-06-07T20:39:57.525Z,100341.95
2023-06-07T20:42:24.717Z,100331.55
2023-06-07T20:44:53.280Z,100327.46
2023-06-07T20:47:21.631Z,100314.14
2023-06-07T20:49:49.343Z,100311.91
2023-06-07T20:52:16.753Z,100302.80
2023-06-07T20:54:44.348Z,100296.64
2023-06-07T20:57:11.725Z,100294.13
2023-06-07T20:59:48.409Z,100296.48
2023-06-07T21:02:15.822Z,100293.10
2023-06-07T21:04:43.022Z,100290.56
2023-06-07T21:07:10.258Z,100288.85
2023-06-07T21:09:37.550Z,100282.73
2023-06-07T21:12:07.326Z,100280.80
2023-06-07T21:14:34.755Z,100278.75
2023-06-07T21:17:01.999Z,100275.02
2023-06-07T21:19:29.233Z,100268.77
2023-06-07T21:21:56.455Z,100265.31
2023-06-07T21:24:23.831Z,100263.65
2023-06-07T21:26:51.225Z,100262.42
2023-06-07T21:29:18.844Z,100258.42
2023-06-07T21:31:46.226Z,100256.45
2023-06-07T21:34:16.696Z,100255.54
2023-06-07T21:36:43.880Z,100256.23
2023-06-07T21:39:11.134Z,100257.88
2023-06-07T21:41:38.810Z,100256.21
2023-06-07T21:44:06.035Z,100261.33
2023-06-07T21:46:33.484Z,100261.25
2023-06-07T21:49:00.909Z,100262.44
2023-06-07T21:51:28.270Z,100260.65
2023-06-07T21:53:55.578Z,100257.75
2023-06-07T21:56:22.794Z,100260.22
2023-06-07T21:58:50.047Z,100259.03
2023-06-07T22:01:17.415Z,100259.03
2023-06-07T22:03:44.950Z,100257.69
2023-06-07T22:06:12.732Z,100259.46
2023-06-07T22:08:42.165Z,100260.95
2023-06-07T22:11:09.368Z,100266.58
2023-06-07T22:13:38.176Z,100265.58
2023-06-07T22:16:06.049Z,100266.38
2023-06-07T22:18:36.702Z,100265.95
2023-06-07T22:21:04.351Z,100266.30
2023-06-07T22:23:32.213Z,100266.47
2023-06-07T22:26:01.093Z,100264.63
2023-06-07T22:28:30.919Z,100256.18
2023-06-07T22:30:58.735Z,100255.88
2023-06-07T22:33:26.065Z,100255.66
2023-06-07T22:35:58.151Z,100252.43
2023-06-07T22:38:25.992Z,100249.90
2023-06-07T22:40:53.290Z,100247.13
2023-06-07T22:43:20.773Z,100244.30
2023-06-07T22:45:48.044Z,100238.77
2023-06-07T22:48:16.794Z,100233.26
2023-06-07T22:50:44.080Z,100234.50
2023-06-07T22:53:13.413Z,100228.52
2023-06-07T22:55:41.865Z,100230.09
2023-06-07T22:58:09.188Z,100229.40
2023-06-07T23:00:36.951Z,100224.83
2023-06-07T23:03:05.235Z,100225.50
2023-06-07T23:05:33.702Z,100224.67
2023-06-07T23:08:01.004Z,100227.26
2023-06-07T23:10:37.306Z,100231.96
2023-06-07T23:13:16.571Z,100238.11
2023-06-07T23:15:46.310Z,100244.12
2023-06-07T23:18:16.130Z,100254.11
2023-06-07T23:20:46.851Z,100255.56
2023-06-07T23:23:14.132Z,100253.17
2023-06-07T23:25:41.864Z,100243.80
2023-06-07T23:28:09.125Z,100244.46
2023-06-07T23:30:36.483Z,100239.96
2023-06-07T23:33:04.719Z,100245.51
2023-06-07T23:35:32.245Z,100243.95
2023-06-07T23:38:01.208Z,100240.30
2023-06-07T23:40:28.457Z,100238.17
2023-06-07T23:42:57.766Z,100241.68
2023-06-07T23:45:27.468Z,100246.20
2023-06-07T23:47:54.849Z,100252.06
2023-06-07T23:50:22.200Z,100253.83
2023-06-07T23:52:49.531Z,100249.81
2023-06-07T23:55:16.767Z,100248.97
2023-06-07T23:57:43.963Z,100247.89
